YYZ weather

Lester B. Pearson International Airport
Toronto, Ontario, Canada

Public forecast

Using degrees Celsius for public forecast. Weather courtesy of forecast.io.

METAR (pilot weather report)

Retrieved 2018/02/24 11:00 UTC (54 minutes ago):

CYYZ 241100Z 30009KT 15SM BKN032 03/M01 A3021 RMK SC7 SLP237

TAF (pilot weather forecast)

Retrieved 2018/02/24 09:42 UTC (2 hours ago):

TAF CYYZ 240838Z 2409/2512 29008KT P6SM SCT030 BKN240 TEMPO 2409/2412 BKN020 OVC240 FM241200 32008KT P6SM SCT025 OVC200 FM241400 35010KT P6SM FEW020 SCT120 BKN220 BECMG 2418/2420 06008KT FM242100 07010KT P6SM FEW120 BKN200 FM250600 08015G25KT P6SM -RA BKN015 OVC050 PROB30 2506/2509 5SM -FZRA BR OVC008 FM250900 09018G28KT 2SM RA BR OVC004 PROB30 2509/2512 1SM -RA BR OVC002 RMK NXT FCST BY 241200Z